sensor_id;sensor_type;location;lat;lon;timestamp;P1;durP1;ratioP1;P2;durP2;ratioP2
20705;SDS011;10514;49.468;11.044;2023-04-08T00:00:54;13.63;;;9.13;;
20705;SDS011;10514;49.468;11.044;2023-04-08T00:03:20;12.73;;;9.33;;
20705;SDS011;10514;49.468;11.044;2023-04-08T00:05:46;12.83;;;9.60;;
20705;SDS011;10514;49.468;11.044;2023-04-08T00:08:12;14.40;;;9.70;;
20705;SDS011;10514;49.468;11.044;2023-04-08T00:10:38;16.13;;;9.57;;
20705;SDS011;10514;49.468;11.044;2023-04-08T00:13:04;15.33;;;9.50;;
20705;SDS011;10514;49.468;11.044;2023-04-08T00:15:30;15.37;;;9.90;;
20705;SDS011;10514;49.468;11.044;2023-04-08T00:17:56;13.90;;;8.70;;
20705;SDS011;10514;49.468;11.044;2023-04-08T00:20:22;12.03;;;8.57;;
20705;SDS011;10514;49.468;11.044;2023-04-08T00:22:48;11.13;;;8.03;;
20705;SDS011;10514;49.468;11.044;2023-04-08T00:25:15;14.17;;;9.03;;
20705;SDS011;10514;49.468;11.044;2023-04-08T00:27:40;11.30;;;8.30;;
20705;SDS011;10514;49.468;11.044;2023-04-08T00:30:06;14.53;;;8.60;;
20705;SDS011;10514;49.468;11.044;2023-04-08T00:32:33;12.03;;;7.93;;
20705;SDS011;10514;49.468;11.044;2023-04-08T00:34:59;10.73;;;8.30;;
20705;SDS011;10514;49.468;11.044;2023-04-08T00:37:26;13.43;;;8.60;;
20705;SDS011;10514;49.468;11.044;2023-04-08T00:39:52;9.07;;;7.50;;
20705;SDS011;10514;49.468;11.044;2023-04-08T00:42:18;16.23;;;8.60;;
20705;SDS011;10514;49.468;11.044;2023-04-08T00:44:46;12.53;;;8.73;;
20705;SDS011;10514;49.468;11.044;2023-04-08T00:47:12;10.90;;;7.33;;
20705;SDS011;10514;49.468;11.044;2023-04-08T00:49:38;9.07;;;7.37;;
20705;SDS011;10514;49.468;11.044;2023-04-08T00:52:04;11.37;;;8.20;;
20705;SDS011;10514;49.468;11.044;2023-04-08T00:54:30;12.17;;;8.20;;
20705;SDS011;10514;49.468;11.044;2023-04-08T00:56:56;11.13;;;7.97;;
20705;SDS011;10514;49.468;11.044;2023-04-08T00:59:25;11.73;;;8.50;;
20705;SDS011;10514;49.468;11.044;2023-04-08T01:04:52;10.13;;;8.07;;
20705;SDS011;10514;49.468;11.044;2023-04-08T01:07:30;10.80;;;8.40;;
20705;SDS011;10514;49.468;11.044;2023-04-08T01:09:58;9.97;;;7.53;;
20705;SDS011;10514;49.468;11.044;2023-04-08T01:12:40;11.67;;;8.30;;
20705;SDS011;10514;49.468;11.044;2023-04-08T01:15:09;15.30;;;8.30;;
20705;SDS011;10514;49.468;11.044;2023-04-08T01:17:36;15.47;;;8.77;;
20705;SDS011;10514;49.468;11.044;2023-04-08T01:20:03;10.40;;;7.47;;
20705;SDS011;10514;49.468;11.044;2023-04-08T01:22:40;11.27;;;8.10;;
20705;SDS011;10514;49.468;11.044;2023-04-08T01:28:04;10.23;;;7.97;;
20705;SDS011;10514;49.468;11.044;2023-04-08T01:30:31;12.40;;;8.50;;
20705;SDS011;10514;49.468;11.044;2023-04-08T01:32:58;13.33;;;8.30;;
20705;SDS011;10514;49.468;11.044;2023-04-08T01:35:26;12.00;;;8.27;;
20705;SDS011;10514;49.468;11.044;2023-04-08T01:37:52;13.07;;;8.83;;
20705;SDS011;10514;49.468;11.044;2023-04-08T01:40:19;9.77;;;7.60;;
20705;SDS011;10514;49.468;11.044;2023-04-08T01:42:46;10.00;;;7.87;;
20705;SDS011;10514;49.468;11.044;2023-04-08T01:45:12;16.13;;;8.80;;
20705;SDS011;10514;49.468;11.044;2023-04-08T01:47:39;11.27;;;7.77;;
20705;SDS011;10514;49.468;11.044;2023-04-08T01:50:06;15.87;;;8.17;;
20705;SDS011;10514;49.468;11.044;2023-04-08T01:52:34;13.60;;;8.73;;
20705;SDS011;10514;49.468;11.044;2023-04-08T01:55:01;12.27;;;7.40;;
20705;SDS011;10514;49.468;11.044;2023-04-08T01:57:28;10.97;;;8.20;;
20705;SDS011;10514;49.468;11.044;2023-04-08T01:59:56;9.27;;;7.43;;
20705;SDS011;10514;49.468;11.044;2023-04-08T02:02:25;12.57;;;8.33;;
20705;SDS011;10514;49.468;11.044;2023-04-08T02:04:52;13.07;;;8.47;;
20705;SDS011;10514;49.468;11.044;2023-04-08T02:07:18;14.73;;;8.97;;
20705;SDS011;10514;49.468;11.044;2023-04-08T02:09:44;12.10;;;8.17;;
20705;SDS011;10514;49.468;11.044;2023-04-08T02:12:10;11.03;;;8.67;;
20705;SDS011;10514;49.468;11.044;2023-04-08T02:14:36;13.43;;;8.77;;
20705;SDS011;10514;49.468;11.044;2023-04-08T02:17:08;10.10;;;7.63;;
20705;SDS011;10514;49.468;11.044;2023-04-08T02:19:36;12.50;;;8.43;;
20705;SDS011;10514;49.468;11.044;2023-04-08T02:22:08;11.43;;;7.90;;
20705;SDS011;10514;49.468;11.044;2023-04-08T02:24:35;12.77;;;8.90;;
20705;SDS011;10514;49.468;11.044;2023-04-08T02:27:02;12.43;;;8.50;;
20705;SDS011;10514;49.468;11.044;2023-04-08T02:29:29;11.63;;;8.83;;
20705;SDS011;10514;49.468;11.044;2023-04-08T02:31:56;13.77;;;9.77;;
20705;SDS011;10514;49.468;11.044;2023-04-08T02:34:22;12.40;;;8.83;;
20705;SDS011;10514;49.468;11.044;2023-04-08T02:36:49;12.40;;;8.83;;
20705;SDS011;10514;49.468;11.044;2023-04-08T02:39:15;12.30;;;8.83;;
20705;SDS011;10514;49.468;11.044;2023-04-08T02:41:41;10.97;;;7.83;;
20705;SDS011;10514;49.468;11.044;2023-04-08T02:44:06;12.00;;;8.57;;
20705;SDS011;10514;49.468;11.044;2023-04-08T02:46:33;12.37;;;9.00;;
20705;SDS011;10514;49.468;11.044;2023-04-08T02:48:58;12.87;;;9.33;;
20705;SDS011;10514;49.468;11.044;2023-04-08T02:51:24;13.00;;;8.83;;
20705;SDS011;10514;49.468;11.044;2023-04-08T02:53:51;10.83;;;7.77;;
20705;SDS011;10514;49.468;11.044;2023-04-08T02:56:17;12.00;;;9.17;;
20705;SDS011;10514;49.468;11.044;2023-04-08T02:58:43;12.90;;;9.87;;
20705;SDS011;10514;49.468;11.044;2023-04-08T03:01:09;13.33;;;9.60;;
20705;SDS011;10514;49.468;11.044;2023-04-08T03:03:35;13.53;;;8.93;;
20705;SDS011;10514;49.468;11.044;2023-04-08T03:06:01;13.23;;;8.83;;
20705;SDS011;10514;49.468;11.044;2023-04-08T03:08:27;13.80;;;8.53;;
20705;SDS011;10514;49.468;11.044;2023-04-08T03:10:53;12.00;;;8.50;;
20705;SDS011;10514;49.468;11.044;2023-04-08T03:13:19;13.43;;;8.87;;
20705;SDS011;10514;49.468;11.044;2023-04-08T03:15:45;14.90;;;9.40;;
20705;SDS011;10514;49.468;11.044;2023-04-08T03:18:11;15.20;;;9.70;;
20705;SDS011;10514;49.468;11.044;2023-04-08T03:20:37;16.93;;;10.13;;
20705;SDS011;10514;49.468;11.044;2023-04-08T03:23:02;13.47;;;10.00;;
20705;SDS011;10514;49.468;11.044;2023-04-08T03:25:28;16.37;;;10.27;;
20705;SDS011;10514;49.468;11.044;2023-04-08T03:27:56;12.73;;;9.90;;
20705;SDS011;10514;49.468;11.044;2023-04-08T03:30:22;13.80;;;10.00;;
20705;SDS011;10514;49.468;11.044;2023-04-08T03:32:48;13.80;;;10.07;;
20705;SDS011;10514;49.468;11.044;2023-04-08T03:35:14;17.77;;;10.93;;
20705;SDS011;10514;49.468;11.044;2023-04-08T03:37:40;14.20;;;9.87;;
20705;SDS011;10514;49.468;11.044;2023-04-08T03:40:06;15.53;;;10.10;;
20705;SDS011;10514;49.468;11.044;2023-04-08T03:42:33;12.13;;;9.40;;
20705;SDS011;10514;49.468;11.044;2023-04-08T03:44:59;12.00;;;9.43;;
20705;SDS011;10514;49.468;11.044;2023-04-08T03:47:25;13.43;;;10.30;;
20705;SDS011;10514;49.468;11.044;2023-04-08T03:49:52;12.90;;;9.90;;
20705;SDS011;10514;49.468;11.044;2023-04-08T03:52:18;13.80;;;9.17;;
20705;SDS011;10514;49.468;11.044;2023-04-08T03:54:44;14.93;;;10.20;;
20705;SDS011;10514;49.468;11.044;2023-04-08T03:57:10;12.27;;;9.43;;
20705;SDS011;10514;49.468;11.044;2023-04-08T03:59:36;13.97;;;9.37;;
20705;SDS011;10514;49.468;11.044;2023-04-08T04:02:04;14.43;;;9.63;;
20705;SDS011;10514;49.468;11.044;2023-04-08T04:04:31;12.70;;;9.00;;
20705;SDS011;10514;49.468;11.044;2023-04-08T04:06:56;12.90;;;9.03;;
20705;SDS011;10514;49.468;11.044;2023-04-08T04:09:22;13.90;;;9.27;;
20705;SDS011;10514;49.468;11.044;2023-04-08T04:11:48;13.67;;;9.83;;
20705;SDS011;10514;49.468;11.044;2023-04-08T04:14:14;13.33;;;9.67;;
20705;SDS011;10514;49.468;11.044;2023-04-08T04:16:39;17.20;;;10.43;;
20705;SDS011;10514;49.468;11.044;2023-04-08T04:19:05;13.20;;;9.03;;
20705;SDS011;10514;49.468;11.044;2023-04-08T04:21:31;16.37;;;10.67;;
20705;SDS011;10514;49.468;11.044;2023-04-08T04:23:57;12.70;;;8.50;;
20705;SDS011;10514;49.468;11.044;2023-04-08T04:26:23;14.77;;;8.53;;
20705;SDS011;10514;49.468;11.044;2023-04-08T04:28:49;14.33;;;10.03;;
20705;SDS011;10514;49.468;11.044;2023-04-08T04:31:19;13.20;;;9.30;;
20705;SDS011;10514;49.468;11.044;2023-04-08T04:33:45;12.20;;;9.00;;
20705;SDS011;10514;49.468;11.044;2023-04-08T04:36:12;20.10;;;10.17;;
20705;SDS011;10514;49.468;11.044;2023-04-08T04:38:38;12.47;;;9.07;;
20705;SDS011;10514;49.468;11.044;2023-04-08T04:41:04;14.90;;;10.00;;
20705;SDS011;10514;49.468;11.044;2023-04-08T04:43:30;14.73;;;10.30;;
20705;SDS011;10514;49.468;11.044;2023-04-08T04:45:56;12.23;;;9.47;;
20705;SDS011;10514;49.468;11.044;2023-04-08T04:48:22;15.13;;;9.70;;
20705;SDS011;10514;49.468;11.044;2023-04-08T04:50:57;13.07;;;8.57;;
20705;SDS011;10514;49.468;11.044;2023-04-08T04:53:24;13.03;;;10.20;;
20705;SDS011;10514;49.468;11.044;2023-04-08T04:55:50;12.77;;;9.17;;
20705;SDS011;10514;49.468;11.044;2023-04-08T04:58:16;13.30;;;9.27;;
20705;SDS011;10514;49.468;11.044;2023-04-08T05:00:43;15.57;;;9.37;;
20705;SDS011;10514;49.468;11.044;2023-04-08T05:03:09;14.37;;;9.77;;
20705;SDS011;10514;49.468;11.044;2023-04-08T05:05:35;14.23;;;9.20;;
20705;SDS011;10514;49.468;11.044;2023-04-08T05:08:01;14.20;;;9.07;;
20705;SDS011;10514;49.468;11.044;2023-04-08T05:10:27;15.70;;;9.50;;
20705;SDS011;10514;49.468;11.044;2023-04-08T05:12:53;18.00;;;9.77;;
20705;SDS011;10514;49.468;11.044;2023-04-08T05:15:19;12.93;;;9.33;;
20705;SDS011;10514;49.468;11.044;2023-04-08T05:17:45;15.07;;;9.40;;
20705;SDS011;10514;49.468;11.044;2023-04-08T05:20:11;14.77;;;9.57;;
20705;SDS011;10514;49.468;11.044;2023-04-08T05:22:37;14.73;;;9.60;;
20705;SDS011;10514;49.468;11.044;2023-04-08T05:25:03;15.57;;;10.00;;
20705;SDS011;10514;49.468;11.044;2023-04-08T05:27:30;13.43;;;9.33;;
20705;SDS011;10514;49.468;11.044;2023-04-08T05:29:56;15.63;;;9.43;;
20705;SDS011;10514;49.468;11.044;2023-04-08T05:32:22;12.93;;;9.23;;
20705;SDS011;10514;49.468;11.044;2023-04-08T05:34:48;12.63;;;8.83;;
20705;SDS011;10514;49.468;11.044;2023-04-08T05:37:13;11.10;;;8.47;;
20705;SDS011;10514;49.468;11.044;2023-04-08T05:39:39;13.67;;;9.70;;
20705;SDS011;10514;49.468;11.044;2023-04-08T05:42:06;12.10;;;9.10;;
20705;SDS011;10514;49.468;11.044;2023-04-08T05:44:32;13.50;;;9.70;;
20705;SDS011;10514;49.468;11.044;2023-04-08T05:46:58;14.77;;;9.07;;
20705;SDS011;10514;49.468;11.044;2023-04-08T05:49:24;12.23;;;9.00;;
20705;SDS011;10514;49.468;11.044;2023-04-08T05:51:50;11.40;;;8.07;;
20705;SDS011;10514;49.468;11.044;2023-04-08T05:54:15;12.80;;;8.37;;
20705;SDS011;10514;49.468;11.044;2023-04-08T05:56:41;16.40;;;8.53;;
20705;SDS011;10514;49.468;11.044;2023-04-08T05:59:10;11.23;;;8.13;;
20705;SDS011;10514;49.468;11.044;2023-04-08T06:01:36;12.03;;;8.57;;
20705;SDS011;10514;49.468;11.044;2023-04-08T06:04:02;13.90;;;8.87;;
20705;SDS011;10514;49.468;11.044;2023-04-08T06:06:27;13.33;;;7.03;;
20705;SDS011;10514;49.468;11.044;2023-04-08T06:08:53;11.10;;;7.17;;
20705;SDS011;10514;49.468;11.044;2023-04-08T06:11:20;10.43;;;6.67;;
20705;SDS011;10514;49.468;11.044;2023-04-08T06:13:45;10.43;;;7.70;;
20705;SDS011;10514;49.468;11.044;2023-04-08T06:16:12;10.27;;;6.97;;
20705;SDS011;10514;49.468;11.044;2023-04-08T06:18:38;13.03;;;7.57;;
20705;SDS011;10514;49.468;11.044;2023-04-08T06:21:04;10.33;;;8.13;;
20705;SDS011;10514;49.468;11.044;2023-04-08T06:23:30;8.53;;;6.33;;
20705;SDS011;10514;49.468;11.044;2023-04-08T06:25:56;11.43;;;6.83;;
20705;SDS011;10514;49.468;11.044;2023-04-08T06:28:22;9.13;;;5.93;;
20705;SDS011;10514;49.468;11.044;2023-04-08T06:30:48;10.00;;;6.10;;
20705;SDS011;10514;49.468;11.044;2023-04-08T06:33:14;9.30;;;5.87;;
20705;SDS011;10514;49.468;11.044;2023-04-08T06:35:40;8.70;;;6.17;;
20705;SDS011;10514;49.468;11.044;2023-04-08T06:38:06;8.50;;;5.93;;
20705;SDS011;10514;49.468;11.044;2023-04-08T06:40:32;7.77;;;5.60;;
20705;SDS011;10514;49.468;11.044;2023-04-08T06:42:58;7.20;;;5.40;;
20705;SDS011;10514;49.468;11.044;2023-04-08T06:45:24;7.30;;;5.47;;
20705;SDS011;10514;49.468;11.044;2023-04-08T06:47:50;6.70;;;4.90;;
20705;SDS011;10514;49.468;11.044;2023-04-08T06:50:16;8.80;;;4.80;;
20705;SDS011;10514;49.468;11.044;2023-04-08T06:52:42;6.30;;;5.07;;
20705;SDS011;10514;49.468;11.044;2023-04-08T06:55:08;6.40;;;4.53;;
20705;SDS011;10514;49.468;11.044;2023-04-08T06:57:34;6.87;;;5.30;;
20705;SDS011;10514;49.468;11.044;2023-04-08T06:59:59;7.60;;;5.40;;
20705;SDS011;10514;49.468;11.044;2023-04-08T07:02:26;7.27;;;5.53;;
20705;SDS011;10514;49.468;11.044;2023-04-08T07:04:52;9.17;;;5.80;;
20705;SDS011;10514;49.468;11.044;2023-04-08T07:07:18;7.53;;;5.10;;
20705;SDS011;10514;49.468;11.044;2023-04-08T07:09:44;9.03;;;4.97;;
20705;SDS011;10514;49.468;11.044;2023-04-08T07:12:11;9.20;;;5.60;;
20705;SDS011;10514;49.468;11.044;2023-04-08T07:14:36;10.10;;;5.87;;
20705;SDS011;10514;49.468;11.044;2023-04-08T07:17:02;6.70;;;5.13;;
20705;SDS011;10514;49.468;11.044;2023-04-08T07:19:28;6.53;;;4.30;;
20705;SDS011;10514;49.468;11.044;2023-04-08T07:21:54;6.77;;;4.77;;
20705;SDS011;10514;49.468;11.044;2023-04-08T07:24:21;5.60;;;4.47;;
20705;SDS011;10514;49.468;11.044;2023-04-08T07:26:48;7.07;;;4.83;;
20705;SDS011;10514;49.468;11.044;2023-04-08T07:29:14;10.60;;;5.07;;
20705;SDS011;10514;49.468;11.044;2023-04-08T07:31:41;10.97;;;5.27;;
20705;SDS011;10514;49.468;11.044;2023-04-08T07:34:07;7.90;;;5.40;;
20705;SDS011;10514;49.468;11.044;2023-04-08T07:36:33;9.80;;;4.80;;
20705;SDS011;10514;49.468;11.044;2023-04-08T07:38:59;10.33;;;7.47;;
20705;SDS011;10514;49.468;11.044;2023-04-08T07:41:25;7.67;;;5.07;;
20705;SDS011;10514;49.468;11.044;2023-04-08T07:43:51;8.90;;;6.03;;
20705;SDS011;10514;49.468;11.044;2023-04-08T07:46:17;8.67;;;6.10;;
20705;SDS011;10514;49.468;11.044;2023-04-08T07:48:44;8.53;;;6.87;;
20705;SDS011;10514;49.468;11.044;2023-04-08T07:51:11;12.73;;;7.43;;
20705;SDS011;10514;49.468;11.044;2023-04-08T07:53:37;12.50;;;8.60;;
20705;SDS011;10514;49.468;11.044;2023-04-08T07:56:09;14.73;;;8.40;;
20705;SDS011;10514;49.468;11.044;2023-04-08T07:58:35;10.33;;;7.80;;
20705;SDS011;10514;49.468;11.044;2023-04-08T08:01:01;13.67;;;8.47;;
20705;SDS011;10514;49.468;11.044;2023-04-08T08:03:27;12.20;;;8.70;;
20705;SDS011;10514;49.468;11.044;2023-04-08T08:05:53;13.53;;;8.27;;
20705;SDS011;10514;49.468;11.044;2023-04-08T08:08:18;10.53;;;7.33;;
20705;SDS011;10514;49.468;11.044;2023-04-08T08:10:44;10.37;;;7.20;;
20705;SDS011;10514;49.468;11.044;2023-04-08T08:13:10;11.03;;;7.90;;
20705;SDS011;10514;49.468;11.044;2023-04-08T08:15:40;10.37;;;7.50;;
20705;SDS011;10514;49.468;11.044;2023-04-08T08:18:06;10.50;;;7.97;;
20705;SDS011;10514;49.468;11.044;2023-04-08T08:20:34;9.33;;;7.60;;
20705;SDS011;10514;49.468;11.044;2023-04-08T08:23:00;10.67;;;7.00;;
20705;SDS011;10514;49.468;11.044;2023-04-08T08:25:26;9.77;;;7.00;;
20705;SDS011;10514;49.468;11.044;2023-04-08T08:27:52;8.80;;;6.73;;
20705;SDS011;10514;49.468;11.044;2023-04-08T08:30:19;11.93;;;7.60;;
20705;SDS011;10514;49.468;11.044;2023-04-08T08:32:46;10.50;;;7.50;;
20705;SDS011;10514;49.468;11.044;2023-04-08T08:35:12;11.60;;;6.87;;
20705;SDS011;10514;49.468;11.044;2023-04-08T08:37:38;13.33;;;7.50;;
20705;SDS011;10514;49.468;11.044;2023-04-08T08:40:04;10.60;;;6.93;;
20705;SDS011;10514;49.468;11.044;2023-04-08T08:42:30;7.43;;;6.13;;
20705;SDS011;10514;49.468;11.044;2023-04-08T08:44:56;8.73;;;6.20;;
20705;SDS011;10514;49.468;11.044;2023-04-08T08:47:22;8.87;;;6.37;;
20705;SDS011;10514;49.468;11.044;2023-04-08T08:49:48;8.67;;;6.43;;
20705;SDS011;10514;49.468;11.044;2023-04-08T08:52:15;12.40;;;7.23;;
20705;SDS011;10514;49.468;11.044;2023-04-08T08:54:42;10.10;;;6.33;;
20705;SDS011;10514;49.468;11.044;2023-04-08T08:57:18;9.40;;;6.13;;
20705;SDS011;10514;49.468;11.044;2023-04-08T08:59:45;8.40;;;6.23;;
20705;SDS011;10514;49.468;11.044;2023-04-08T09:02:27;11.93;;;6.53;;
20705;SDS011;10514;49.468;11.044;2023-04-08T09:05:03;8.17;;;6.60;;
20705;SDS011;10514;49.468;11.044;2023-04-08T09:07:30;7.97;;;6.17;;
20705;SDS011;10514;49.468;11.044;2023-04-08T09:09:57;7.93;;;6.30;;
20705;SDS011;10514;49.468;11.044;2023-04-08T09:12:23;9.77;;;6.77;;
20705;SDS011;10514;49.468;11.044;2023-04-08T09:14:49;9.57;;;6.47;;
20705;SDS011;10514;49.468;11.044;2023-04-08T09:17:30;9.00;;;5.83;;
20705;SDS011;10514;49.468;11.044;2023-04-08T09:20:10;7.77;;;5.43;;
20705;SDS011;10514;49.468;11.044;2023-04-08T09:22:58;8.20;;;6.23;;
20705;SDS011;10514;49.468;11.044;2023-04-08T09:25:32;11.00;;;6.27;;
20705;SDS011;10514;49.468;11.044;2023-04-08T09:27:58;7.73;;;6.07;;
20705;SDS011;10514;49.468;11.044;2023-04-08T09:30:25;9.37;;;6.10;;
20705;SDS011;10514;49.468;11.044;2023-04-08T09:32:55;9.63;;;7.10;;
20705;SDS011;10514;49.468;11.044;2023-04-08T09:35:21;10.60;;;6.90;;
20705;SDS011;10514;49.468;11.044;2023-04-08T09:37:47;8.80;;;5.87;;
20705;SDS011;10514;49.468;11.044;2023-04-08T09:40:13;9.67;;;7.30;;
20705;SDS011;10514;49.468;11.044;2023-04-08T09:42:40;9.27;;;7.10;;
20705;SDS011;10514;49.468;11.044;2023-04-08T09:45:09;8.33;;;6.50;;
20705;SDS011;10514;49.468;11.044;2023-04-08T09:50:30;10.97;;;6.83;;
20705;SDS011;10514;49.468;11.044;2023-04-08T09:53:12;11.17;;;6.73;;
20705;SDS011;10514;49.468;11.044;2023-04-08T09:55:43;9.17;;;7.33;;
20705;SDS011;10514;49.468;11.044;2023-04-08T09:58:15;11.03;;;7.10;;
20705;SDS011;10514;49.468;11.044;2023-04-08T10:00:45;9.07;;;6.90;;
20705;SDS011;10514;49.468;11.044;2023-04-08T10:05:40;10.00;;;7.07;;
20705;SDS011;10514;49.468;11.044;2023-04-08T10:08:08;10.03;;;7.33;;
20705;SDS011;10514;49.468;11.044;2023-04-08T10:10:35;8.03;;;6.47;;
20705;SDS011;10514;49.468;11.044;2023-04-08T10:13:02;12.40;;;7.37;;
20705;SDS011;10514;49.468;11.044;2023-04-08T10:15:32;8.87;;;7.10;;
20705;SDS011;10514;49.468;11.044;2023-04-08T10:23:02;9.03;;;7.03;;
20705;SDS011;10514;49.468;11.044;2023-04-08T10:25:32;9.40;;;7.33;;
20705;SDS011;10514;49.468;11.044;2023-04-08T10:27:59;9.07;;;6.93;;
20705;SDS011;10514;49.468;11.044;2023-04-08T10:32:55;8.17;;;6.77;;
20705;SDS011;10514;49.468;11.044;2023-04-08T10:35:36;8.30;;;6.77;;
20705;SDS011;10514;49.468;11.044;2023-04-08T10:38:06;8.13;;;6.53;;
20705;SDS011;10514;49.468;11.044;2023-04-08T10:40:35;8.57;;;6.97;;
20705;SDS011;10514;49.468;11.044;2023-04-08T10:43:02;8.93;;;6.67;;
20705;SDS011;10514;49.468;11.044;2023-04-08T10:45:29;10.80;;;7.20;;
20705;SDS011;10514;49.468;11.044;2023-04-08T10:47:55;9.70;;;6.80;;
20705;SDS011;10514;49.468;11.044;2023-04-08T10:50:21;8.37;;;6.30;;
20705;SDS011;10514;49.468;11.044;2023-04-08T10:52:48;8.07;;;6.65;;
20705;SDS011;10514;49.468;11.044;2023-04-08T10:55:14;8.10;;;6.13;;
20705;SDS011;10514;49.468;11.044;2023-04-08T10:57:41;9.65;;;6.90;;
20705;SDS011;10514;49.468;11.044;2023-04-08T11:00:10;7.88;;;5.78;;
20705;SDS011;10514;49.468;11.044;2023-04-08T11:02:39;8.13;;;5.97;;
20705;SDS011;10514;49.468;11.044;2023-04-08T11:05:05;7.30;;;5.65;;
20705;SDS011;10514;49.468;11.044;2023-04-08T11:07:31;8.85;;;5.97;;
20705;SDS011;10514;49.468;11.044;2023-04-08T11:10:01;5.53;;;4.63;;
20705;SDS011;10514;49.468;11.044;2023-04-08T11:12:27;9.07;;;5.93;;
20705;SDS011;10514;49.468;11.044;2023-04-08T11:14:53;7.75;;;5.57;;
20705;SDS011;10514;49.468;11.044;2023-04-08T11:17:19;7.55;;;5.25;;
20705;SDS011;10514;49.468;11.044;2023-04-08T11:19:46;7.68;;;5.03;;
20705;SDS011;10514;49.468;11.044;2023-04-08T11:22:12;6.55;;;5.35;;
20705;SDS011;10514;49.468;11.044;2023-04-08T11:24:38;6.32;;;4.85;;
20705;SDS011;10514;49.468;11.044;2023-04-08T11:27:04;7.85;;;5.53;;
20705;SDS011;10514;49.468;11.044;2023-04-08T11:29:30;10.18;;;6.25;;
20705;SDS011;10514;49.468;11.044;2023-04-08T11:31:57;7.43;;;5.03;;
20705;SDS011;10514;49.468;11.044;2023-04-08T11:34:23;6.65;;;4.68;;
20705;SDS011;10514;49.468;11.044;2023-04-08T11:36:50;6.35;;;4.53;;
20705;SDS011;10514;49.468;11.044;2023-04-08T11:39:16;5.88;;;5.03;;
20705;SDS011;10514;49.468;11.044;2023-04-08T11:41:42;5.68;;;4.82;;
20705;SDS011;10514;49.468;11.044;2023-04-08T11:44:08;5.90;;;4.85;;
20705;SDS011;10514;49.468;11.044;2023-04-08T11:46:34;6.00;;;4.68;;
20705;SDS011;10514;49.468;11.044;2023-04-08T11:49:05;7.82;;;5.03;;
20705;SDS011;10514;49.468;11.044;2023-04-08T11:51:32;6.63;;;4.72;;
20705;SDS011;10514;49.468;11.044;2023-04-08T11:53:58;5.32;;;4.55;;
20705;SDS011;10514;49.468;11.044;2023-04-08T11:56:25;7.82;;;5.38;;
20705;SDS011;10514;49.468;11.044;2023-04-08T11:58:53;6.90;;;5.10;;
20705;SDS011;10514;49.468;11.044;2023-04-08T12:01:19;6.03;;;4.90;;
20705;SDS011;10514;49.468;11.044;2023-04-08T12:03:58;6.55;;;5.10;;
20705;SDS011;10514;49.468;11.044;2023-04-08T12:06:25;6.40;;;5.00;;
20705;SDS011;10514;49.468;11.044;2023-04-08T12:08:52;7.60;;;5.15;;
20705;SDS011;10514;49.468;11.044;2023-04-08T12:11:18;5.50;;;4.65;;
20705;SDS011;10514;49.468;11.044;2023-04-08T12:13:44;7.35;;;5.32;;
20705;SDS011;10514;49.468;11.044;2023-04-08T12:16:10;6.10;;;4.85;;
20705;SDS011;10514;49.468;11.044;2023-04-08T12:18:36;5.55;;;4.50;;
20705;SDS011;10514;49.468;11.044;2023-04-08T12:21:03;6.80;;;4.80;;
20705;SDS011;10514;49.468;11.044;2023-04-08T12:23:29;6.53;;;4.97;;
20705;SDS011;10514;49.468;11.044;2023-04-08T12:25:55;6.22;;;4.45;;
20705;SDS011;10514;49.468;11.044;2023-04-08T12:28:22;5.45;;;4.05;;
20705;SDS011;10514;49.468;11.044;2023-04-08T12:30:48;5.93;;;4.78;;
20705;SDS011;10514;49.468;11.044;2023-04-08T12:33:13;6.75;;;4.60;;
20705;SDS011;10514;49.468;11.044;2023-04-08T12:35:40;5.05;;;4.13;;
20705;SDS011;10514;49.468;11.044;2023-04-08T12:38:06;5.68;;;4.35;;
20705;SDS011;10514;49.468;11.044;2023-04-08T12:40:32;6.95;;;4.82;;
20705;SDS011;10514;49.468;11.044;2023-04-08T12:42:58;6.07;;;4.65;;
20705;SDS011;10514;49.468;11.044;2023-04-08T12:45:23;4.45;;;3.90;;
20705;SDS011;10514;49.468;11.044;2023-04-08T12:47:49;7.47;;;4.72;;
20705;SDS011;10514;49.468;11.044;2023-04-08T12:50:15;4.82;;;4.00;;
20705;SDS011;10514;49.468;11.044;2023-04-08T12:52:41;18.50;;;4.35;;
20705;SDS011;10514;49.468;11.044;2023-04-08T12:55:07;5.35;;;3.83;;
20705;SDS011;10514;49.468;11.044;2023-04-08T12:57:34;6.18;;;4.30;;
20705;SDS011;10514;49.468;11.044;2023-04-08T13:00:00;5.35;;;3.85;;
20705;SDS011;10514;49.468;11.044;2023-04-08T13:02:27;7.13;;;4.47;;
20705;SDS011;10514;49.468;11.044;2023-04-08T13:04:53;5.47;;;4.05;;
20705;SDS011;10514;49.468;11.044;2023-04-08T13:07:19;6.10;;;4.82;;
20705;SDS011;10514;49.468;11.044;2023-04-08T13:09:45;6.88;;;5.00;;
20705;SDS011;10514;49.468;11.044;2023-04-08T13:12:11;6.40;;;4.20;;
20705;SDS011;10514;49.468;11.044;2023-04-08T13:14:37;5.00;;;3.75;;
20705;SDS011;10514;49.468;11.044;2023-04-08T13:17:03;4.82;;;3.38;;
20705;SDS011;10514;49.468;11.044;2023-04-08T13:19:29;4.40;;;3.63;;
20705;SDS011;10514;49.468;11.044;2023-04-08T13:21:55;6.55;;;3.83;;
20705;SDS011;10514;49.468;11.044;2023-04-08T13:24:21;4.13;;;3.50;;
20705;SDS011;10514;49.468;11.044;2023-04-08T13:26:47;5.75;;;4.55;;
20705;SDS011;10514;49.468;11.044;2023-04-08T13:29:14;5.57;;;3.90;;
20705;SDS011;10514;49.468;11.044;2023-04-08T13:31:39;6.07;;;3.80;;
20705;SDS011;10514;49.468;11.044;2023-04-08T13:34:06;5.72;;;3.65;;
20705;SDS011;10514;49.468;11.044;2023-04-08T13:36:32;4.63;;;3.63;;
20705;SDS011;10514;49.468;11.044;2023-04-08T13:38:58;4.15;;;3.20;;
20705;SDS011;10514;49.468;11.044;2023-04-08T13:41:24;4.07;;;3.15;;
20705;SDS011;10514;49.468;11.044;2023-04-08T13:43:51;5.00;;;3.63;;
20705;SDS011;10514;49.468;11.044;2023-04-08T13:46:18;5.57;;;3.40;;
20705;SDS011;10514;49.468;11.044;2023-04-08T13:48:44;4.18;;;3.10;;
20705;SDS011;10514;49.468;11.044;2023-04-08T13:51:10;6.95;;;3.10;;
20705;SDS011;10514;49.468;11.044;2023-04-08T13:53:36;4.35;;;3.83;;
20705;SDS011;10514;49.468;11.044;2023-04-08T13:56:02;5.03;;;3.45;;
20705;SDS011;10514;49.468;11.044;2023-04-08T13:58:27;4.22;;;2.90;;
20705;SDS011;10514;49.468;11.044;2023-04-08T14:00:53;5.22;;;3.33;;
20705;SDS011;10514;49.468;11.044;2023-04-08T14:03:19;4.90;;;3.42;;
20705;SDS011;10514;49.468;11.044;2023-04-08T14:05:45;4.85;;;3.30;;
20705;SDS011;10514;49.468;11.044;2023-04-08T14:08:11;10.18;;;7.40;;
20705;SDS011;10514;49.468;11.044;2023-04-08T14:10:37;5.05;;;4.00;;
20705;SDS011;10514;49.468;11.044;2023-04-08T14:13:03;4.75;;;3.17;;
20705;SDS011;10514;49.468;11.044;2023-04-08T14:15:29;6.20;;;2.83;;
20705;SDS011;10514;49.468;11.044;2023-04-08T14:17:55;5.10;;;2.78;;
20705;SDS011;10514;49.468;11.044;2023-04-08T14:20:22;4.20;;;2.95;;
20705;SDS011;10514;49.468;11.044;2023-04-08T14:22:48;4.57;;;2.92;;
20705;SDS011;10514;49.468;11.044;2023-04-08T14:25:13;4.50;;;2.65;;
20705;SDS011;10514;49.468;11.044;2023-04-08T14:27:39;3.38;;;2.22;;
20705;SDS011;10514;49.468;11.044;2023-04-08T14:30:05;4.07;;;2.88;;
20705;SDS011;10514;49.468;11.044;2023-04-08T14:32:31;3.53;;;2.65;;
20705;SDS011;10514;49.468;11.044;2023-04-08T14:34:57;3.30;;;2.53;;
20705;SDS011;10514;49.468;11.044;2023-04-08T14:37:23;3.47;;;2.25;;
20705;SDS011;10514;49.468;11.044;2023-04-08T14:39:49;4.03;;;2.72;;
20705;SDS011;10514;49.468;11.044;2023-04-08T14:42:15;4.85;;;3.22;;